Monterey Park, California
Current Conditions -  °F | °C
As of 4:47 AM on Tuesday 21 Oct 2014 (Local Time) from KCQT Reporting Station
Overcast Overcast  
Wind Chill: 67°   Ceiling: 1400
Heat Index: 67°   Visibility: 8mi
Dew Point: 60°   Wind: 0mph
Humidity: 79%   Direction: NA
Pressure: 29.89"   Gusts: NA
Location:  34.06°N, 118.12°W
Report Text: KCQT 211147Z AUTO 00000KT 8SM OVC014 19/16 A2989 RMK AO2 SLP118 T01940156 10200 20194 55004
Loading
Personal Weather Stations






























Interactive Weather Map
Tropical Storm Tracking
New forecast layout! Learn more

10-Day Weather Forecast

Advertisements
Track Severe Weather on mobile